sensor_id;sensor_type;location;lat;lon;timestamp;P1;durP1;ratioP1;P2;durP2;ratioP2
55794;SDS011;41716;51.910;4.430;2023-05-02T00:01:42;12.23;;;5.78;;
55794;SDS011;41716;51.910;4.430;2023-05-02T00:06:45;10.07;;;6.03;;
55794;SDS011;41716;51.910;4.430;2023-05-02T00:11:47;13.32;;;6.60;;
55794;SDS011;41716;51.910;4.430;2023-05-02T00:16:48;10.30;;;5.97;;
55794;SDS011;41716;51.910;4.430;2023-05-02T00:21:51;14.05;;;7.07;;
55794;SDS011;41716;51.910;4.430;2023-05-02T00:26:53;12.50;;;6.82;;
55794;SDS011;41716;51.910;4.430;2023-05-02T00:31:55;13.57;;;6.72;;
55794;SDS011;41716;51.910;4.430;2023-05-02T00:36:58;11.27;;;6.22;;
55794;SDS011;41716;51.910;4.430;2023-05-02T00:41:59;11.32;;;6.72;;
55794;SDS011;41716;51.910;4.430;2023-05-02T00:47:01;11.63;;;6.45;;
55794;SDS011;41716;51.910;4.430;2023-05-02T00:52:04;10.65;;;5.80;;
55794;SDS011;41716;51.910;4.430;2023-05-02T00:57:06;10.23;;;5.70;;
55794;SDS011;41716;51.910;4.430;2023-05-02T01:02:16;7.20;;;3.88;;
55794;SDS011;41716;51.910;4.430;2023-05-02T01:07:41;6.75;;;3.33;;
55794;SDS011;41716;51.910;4.430;2023-05-02T01:12:57;4.55;;;1.70;;
55794;SDS011;41716;51.910;4.430;2023-05-02T01:18:02;4.53;;;1.17;;
55794;SDS011;41716;51.910;4.430;2023-05-02T01:23:10;2.10;;;0.90;;
55794;SDS011;41716;51.910;4.430;2023-05-02T01:28:20;4.10;;;1.40;;
55794;SDS011;41716;51.910;4.430;2023-05-02T01:33:30;6.13;;;1.15;;
55794;SDS011;41716;51.910;4.430;2023-05-02T01:38:35;9.90;;;1.30;;
55794;SDS011;41716;51.910;4.430;2023-05-02T01:48:43;3.85;;;0.90;;
55794;SDS011;41716;51.910;4.430;2023-05-02T01:53:47;3.97;;;0.90;;
55794;SDS011;41716;51.910;4.430;2023-05-02T01:58:50;3.58;;;0.90;;
55794;SDS011;41716;51.910;4.430;2023-05-02T02:03:55;3.45;;;0.98;;
55794;SDS011;41716;51.910;4.430;2023-05-02T02:08:58;5.40;;;1.02;;
55794;SDS011;41716;51.910;4.430;2023-05-02T02:14:01;5.47;;;0.75;;
55794;SDS011;41716;51.910;4.430;2023-05-02T02:19:09;5.30;;;0.90;;
55794;SDS011;41716;51.910;4.430;2023-05-02T02:24:13;3.35;;;0.98;;
55794;SDS011;41716;51.910;4.430;2023-05-02T02:29:18;3.33;;;0.60;;
55794;SDS011;41716;51.910;4.430;2023-05-02T02:34:21;4.03;;;0.98;;
55794;SDS011;41716;51.910;4.430;2023-05-02T02:39:27;3.47;;;0.70;;
55794;SDS011;41716;51.910;4.430;2023-05-02T02:44:40;2.70;;;0.70;;
55794;SDS011;41716;51.910;4.430;2023-05-02T02:49:57;3.97;;;0.77;;
55794;SDS011;41716;51.910;4.430;2023-05-02T02:55:10;4.65;;;1.10;;
55794;SDS011;41716;51.910;4.430;2023-05-02T03:00:18;4.70;;;0.63;;
55794;SDS011;41716;51.910;4.430;2023-05-02T03:05:23;3.95;;;0.65;;
55794;SDS011;41716;51.910;4.430;2023-05-02T03:10:25;3.38;;;0.55;;
55794;SDS011;41716;51.910;4.430;2023-05-02T03:15:38;2.30;;;0.60;;
55794;SDS011;41716;51.910;4.430;2023-05-02T03:21:11;1.83;;;0.60;;
55794;SDS011;41716;51.910;4.430;2023-05-02T03:26:13;2.50;;;0.55;;
55794;SDS011;41716;51.910;4.430;2023-05-02T03:31:16;1.92;;;0.47;;
55794;SDS011;41716;51.910;4.430;2023-05-02T03:36:19;0.88;;;0.38;;
55794;SDS011;41716;51.910;4.430;2023-05-02T03:41:21;2.17;;;0.30;;
55794;SDS011;41716;51.910;4.430;2023-05-02T03:46:23;2.45;;;0.65;;
55794;SDS011;41716;51.910;4.430;2023-05-02T03:51:26;2.45;;;0.63;;
55794;SDS011;41716;51.910;4.430;2023-05-02T03:56:28;3.90;;;0.45;;
55794;SDS011;41716;51.910;4.430;2023-05-02T04:01:30;3.50;;;0.50;;
55794;SDS011;41716;51.910;4.430;2023-05-02T04:06:33;3.65;;;0.50;;
55794;SDS011;41716;51.910;4.430;2023-05-02T04:11:35;1.50;;;0.57;;
55794;SDS011;41716;51.910;4.430;2023-05-02T04:16:36;1.67;;;0.70;;
55794;SDS011;41716;51.910;4.430;2023-05-02T04:21:40;2.58;;;0.77;;
55794;SDS011;41716;51.910;4.430;2023-05-02T04:26:41;3.17;;;0.50;;
55794;SDS011;41716;51.910;4.430;2023-05-02T04:31:43;1.95;;;0.57;;
55794;SDS011;41716;51.910;4.430;2023-05-02T04:36:46;1.15;;;0.40;;
55794;SDS011;41716;51.910;4.430;2023-05-02T04:41:48;4.00;;;0.60;;
55794;SDS011;41716;51.910;4.430;2023-05-02T04:46:50;2.13;;;0.60;;
55794;SDS011;41716;51.910;4.430;2023-05-02T04:51:53;3.08;;;0.60;;
55794;SDS011;41716;51.910;4.430;2023-05-02T04:56:55;2.20;;;0.55;;
55794;SDS011;41716;51.910;4.430;2023-05-02T05:01:56;3.50;;;0.90;;
55794;SDS011;41716;51.910;4.430;2023-05-02T05:07:00;5.38;;;0.70;;
55794;SDS011;41716;51.910;4.430;2023-05-02T05:12:01;2.95;;;0.80;;
55794;SDS011;41716;51.910;4.430;2023-05-02T05:17:03;2.83;;;0.68;;
55794;SDS011;41716;51.910;4.430;2023-05-02T05:22:06;4.28;;;0.90;;
55794;SDS011;41716;51.910;4.430;2023-05-02T05:27:08;4.60;;;0.65;;
55794;SDS011;41716;51.910;4.430;2023-05-02T05:32:10;3.20;;;0.70;;
55794;SDS011;41716;51.910;4.430;2023-05-02T05:37:13;5.38;;;1.00;;
55794;SDS011;41716;51.910;4.430;2023-05-02T05:42:15;2.87;;;0.70;;
55794;SDS011;41716;51.910;4.430;2023-05-02T05:47:20;3.72;;;0.90;;
55794;SDS011;41716;51.910;4.430;2023-05-02T05:52:23;7.10;;;1.48;;
55794;SDS011;41716;51.910;4.430;2023-05-02T05:57:25;5.37;;;1.10;;
55794;SDS011;41716;51.910;4.430;2023-05-02T06:02:27;4.10;;;0.85;;
55794;SDS011;41716;51.910;4.430;2023-05-02T06:07:30;6.57;;;1.30;;
55794;SDS011;41716;51.910;4.430;2023-05-02T06:12:32;5.03;;;1.13;;
55794;SDS011;41716;51.910;4.430;2023-05-02T06:17:34;5.93;;;0.90;;
55794;SDS011;41716;51.910;4.430;2023-05-02T06:22:37;5.13;;;0.98;;
55794;SDS011;41716;51.910;4.430;2023-05-02T06:27:39;2.63;;;0.77;;
55794;SDS011;41716;51.910;4.430;2023-05-02T06:32:41;4.93;;;0.88;;
55794;SDS011;41716;51.910;4.430;2023-05-02T06:37:45;3.78;;;0.98;;
55794;SDS011;41716;51.910;4.430;2023-05-02T06:42:46;6.03;;;0.93;;
55794;SDS011;41716;51.910;4.430;2023-05-02T06:47:48;6.95;;;1.15;;
55794;SDS011;41716;51.910;4.430;2023-05-02T06:52:51;3.55;;;0.80;;
55794;SDS011;41716;51.910;4.430;2023-05-02T06:57:53;5.35;;;1.30;;
55794;SDS011;41716;51.910;4.430;2023-05-02T07:02:55;2.45;;;0.82;;
55794;SDS011;41716;51.910;4.430;2023-05-02T07:07:58;4.32;;;1.10;;
55794;SDS011;41716;51.910;4.430;2023-05-02T07:13:00;3.08;;;0.85;;
55794;SDS011;41716;51.910;4.430;2023-05-02T07:18:02;3.22;;;0.80;;
55794;SDS011;41716;51.910;4.430;2023-05-02T07:23:05;6.03;;;0.93;;
55794;SDS011;41716;51.910;4.430;2023-05-02T07:33:09;3.55;;;0.70;;
55794;SDS011;41716;51.910;4.430;2023-05-02T07:38:12;5.15;;;0.60;;
55794;SDS011;41716;51.910;4.430;2023-05-02T07:43:14;5.67;;;0.80;;
55794;SDS011;41716;51.910;4.430;2023-05-02T07:48:16;4.35;;;0.70;;
55794;SDS011;41716;51.910;4.430;2023-05-02T07:53:19;6.40;;;0.95;;
55794;SDS011;41716;51.910;4.430;2023-05-02T07:58:21;3.38;;;0.77;;
55794;SDS011;41716;51.910;4.430;2023-05-02T08:03:22;4.22;;;0.93;;
55794;SDS011;41716;51.910;4.430;2023-05-02T08:08:25;2.85;;;0.70;;
55794;SDS011;41716;51.910;4.430;2023-05-02T08:13:27;10.77;;;5.32;;
55794;SDS011;41716;51.910;4.430;2023-05-02T08:18:29;5.10;;;1.08;;
55794;SDS011;41716;51.910;4.430;2023-05-02T08:23:35;2.85;;;0.90;;
55794;SDS011;41716;51.910;4.430;2023-05-02T08:28:37;3.67;;;0.73;;
55794;SDS011;41716;51.910;4.430;2023-05-02T08:33:39;2.65;;;1.08;;
55794;SDS011;41716;51.910;4.430;2023-05-02T08:38:42;1.63;;;0.57;;
55794;SDS011;41716;51.910;4.430;2023-05-02T08:43:46;4.05;;;0.90;;
55794;SDS011;41716;51.910;4.430;2023-05-02T08:48:47;4.00;;;0.80;;
55794;SDS011;41716;51.910;4.430;2023-05-02T08:53:52;3.85;;;0.80;;
55794;SDS011;41716;51.910;4.430;2023-05-02T08:58:55;3.10;;;0.60;;
55794;SDS011;41716;51.910;4.430;2023-05-02T09:03:57;6.28;;;0.70;;
55794;SDS011;41716;51.910;4.430;2023-05-02T09:09:00;2.97;;;0.70;;
55794;SDS011;41716;51.910;4.430;2023-05-02T09:14:07;3.10;;;0.57;;
55794;SDS011;41716;51.910;4.430;2023-05-02T09:19:22;3.60;;;0.80;;
55794;SDS011;41716;51.910;4.430;2023-05-02T09:24:28;1.73;;;0.50;;
55794;SDS011;41716;51.910;4.430;2023-05-02T09:29:31;4.63;;;0.60;;
55794;SDS011;41716;51.910;4.430;2023-05-02T09:34:36;3.03;;;0.77;;
55794;SDS011;41716;51.910;4.430;2023-05-02T09:39:40;3.20;;;0.63;;
55794;SDS011;41716;51.910;4.430;2023-05-02T09:44:50;1.40;;;0.50;;
55794;SDS011;41716;51.910;4.430;2023-05-02T09:49:52;3.13;;;0.65;;
55794;SDS011;41716;51.910;4.430;2023-05-02T09:54:55;2.25;;;1.02;;
55794;SDS011;41716;51.910;4.430;2023-05-02T09:59:57;2.67;;;0.80;;
55794;SDS011;41716;51.910;4.430;2023-05-02T10:04:59;2.45;;;0.60;;
55794;SDS011;41716;51.910;4.430;2023-05-02T10:10:05;2.88;;;0.80;;
55794;SDS011;41716;51.910;4.430;2023-05-02T10:15:12;5.78;;;0.80;;
55794;SDS011;41716;51.910;4.430;2023-05-02T10:20:17;6.78;;;0.80;;
55794;SDS011;41716;51.910;4.430;2023-05-02T10:25:25;5.32;;;0.77;;
55794;SDS011;41716;51.910;4.430;2023-05-02T10:30:27;2.45;;;0.73;;
55794;SDS011;41716;51.910;4.430;2023-05-02T10:35:31;2.67;;;0.60;;
55794;SDS011;41716;51.910;4.430;2023-05-02T10:40:34;6.88;;;0.70;;
55794;SDS011;41716;51.910;4.430;2023-05-02T10:45:36;5.27;;;0.83;;
55794;SDS011;41716;51.910;4.430;2023-05-02T10:50:41;2.13;;;0.60;;
55794;SDS011;41716;51.910;4.430;2023-05-02T10:55:45;2.70;;;0.75;;
55794;SDS011;41716;51.910;4.430;2023-05-02T11:01:30;4.18;;;0.75;;
55794;SDS011;41716;51.910;4.430;2023-05-02T11:06:36;4.15;;;0.80;;
55794;SDS011;41716;51.910;4.430;2023-05-02T11:12:00;5.32;;;1.00;;
55794;SDS011;41716;51.910;4.430;2023-05-02T11:17:07;2.80;;;0.60;;
55794;SDS011;41716;51.910;4.430;2023-05-02T11:27:38;2.28;;;0.73;;
55794;SDS011;41716;51.910;4.430;2023-05-02T11:38:20;2.58;;;0.80;;
55794;SDS011;41716;51.910;4.430;2023-05-02T11:43:23;3.50;;;0.80;;
55794;SDS011;41716;51.910;4.430;2023-05-02T11:48:26;5.63;;;1.02;;
55794;SDS011;41716;51.910;4.430;2023-05-02T11:53:28;1.70;;;0.60;;
55794;SDS011;41716;51.910;4.430;2023-05-02T11:58:31;4.93;;;0.60;;
55794;SDS011;41716;51.910;4.430;2023-05-02T12:03:33;5.65;;;0.93;;
55794;SDS011;41716;51.910;4.430;2023-05-02T12:08:35;6.38;;;0.95;;
55794;SDS011;41716;51.910;4.430;2023-05-02T12:13:44;3.65;;;1.65;;
55794;SDS011;41716;51.910;4.430;2023-05-02T12:18:47;4.00;;;0.90;;
55794;SDS011;41716;51.910;4.430;2023-05-02T12:23:49;2.90;;;0.75;;
55794;SDS011;41716;51.910;4.430;2023-05-02T12:28:53;4.07;;;0.80;;
55794;SDS011;41716;51.910;4.430;2023-05-02T12:39:00;1.20;;;0.60;;
55794;SDS011;41716;51.910;4.430;2023-05-02T12:44:05;2.47;;;0.80;;
55794;SDS011;41716;51.910;4.430;2023-05-02T12:49:07;3.97;;;1.05;;
55794;SDS011;41716;51.910;4.430;2023-05-02T12:54:18;1.73;;;0.70;;
55794;SDS011;41716;51.910;4.430;2023-05-02T12:59:26;6.45;;;1.08;;
55794;SDS011;41716;51.910;4.430;2023-05-02T13:04:32;4.30;;;1.00;;
55794;SDS011;41716;51.910;4.430;2023-05-02T13:09:34;4.78;;;0.98;;
55794;SDS011;41716;51.910;4.430;2023-05-02T13:14:37;1.73;;;0.60;;
55794;SDS011;41716;51.910;4.430;2023-05-02T13:19:39;2.93;;;0.87;;
55794;SDS011;41716;51.910;4.430;2023-05-02T13:24:41;5.82;;;1.10;;
55794;SDS011;41716;51.910;4.430;2023-05-02T13:29:45;2.83;;;0.90;;
55794;SDS011;41716;51.910;4.430;2023-05-02T13:34:46;2.73;;;0.97;;
55794;SDS011;41716;51.910;4.430;2023-05-02T13:39:48;2.38;;;0.68;;
55794;SDS011;41716;51.910;4.430;2023-05-02T13:44:51;1.65;;;0.70;;
55794;SDS011;41716;51.910;4.430;2023-05-02T13:49:53;3.00;;;0.97;;
55794;SDS011;41716;51.910;4.430;2023-05-02T13:54:55;1.73;;;0.70;;
55794;SDS011;41716;51.910;4.430;2023-05-02T13:59:58;2.67;;;0.70;;
55794;SDS011;41716;51.910;4.430;2023-05-02T14:05:00;2.10;;;0.80;;
55794;SDS011;41716;51.910;4.430;2023-05-02T14:10:02;3.42;;;0.90;;
55794;SDS011;41716;51.910;4.430;2023-05-02T14:15:06;4.00;;;0.70;;
55794;SDS011;41716;51.910;4.430;2023-05-02T14:20:09;3.22;;;0.70;;
55794;SDS011;41716;51.910;4.430;2023-05-02T14:25:11;3.33;;;0.90;;
55794;SDS011;41716;51.910;4.430;2023-05-02T14:30:16;4.47;;;0.82;;
55794;SDS011;41716;51.910;4.430;2023-05-02T14:35:18;4.00;;;0.90;;
55794;SDS011;41716;51.910;4.430;2023-05-02T14:40:20;5.55;;;0.90;;
55794;SDS011;41716;51.910;4.430;2023-05-02T14:45:23;3.63;;;0.80;;
55794;SDS011;41716;51.910;4.430;2023-05-02T14:50:25;3.60;;;0.82;;
55794;SDS011;41716;51.910;4.430;2023-05-02T14:55:27;4.18;;;0.90;;
55794;SDS011;41716;51.910;4.430;2023-05-02T15:00:31;5.32;;;1.10;;
55794;SDS011;41716;51.910;4.430;2023-05-02T15:05:34;1.70;;;0.90;;
55794;SDS011;41716;51.910;4.430;2023-05-02T15:10:36;3.15;;;0.80;;
55794;SDS011;41716;51.910;4.430;2023-05-02T15:15:40;4.22;;;1.13;;
55794;SDS011;41716;51.910;4.430;2023-05-02T15:20:41;3.23;;;1.13;;
55794;SDS011;41716;51.910;4.430;2023-05-02T15:25:44;5.43;;;1.15;;
55794;SDS011;41716;51.910;4.430;2023-05-02T15:30:47;6.30;;;1.40;;
55794;SDS011;41716;51.910;4.430;2023-05-02T15:35:52;3.03;;;0.80;;
55794;SDS011;41716;51.910;4.430;2023-05-02T15:40:57;4.15;;;0.93;;
55794;SDS011;41716;51.910;4.430;2023-05-02T15:46:01;3.83;;;1.17;;
55794;SDS011;41716;51.910;4.430;2023-05-02T15:51:03;5.97;;;1.20;;
55794;SDS011;41716;51.910;4.430;2023-05-02T15:56:06;5.25;;;1.30;;
55794;SDS011;41716;51.910;4.430;2023-05-02T16:01:09;4.70;;;1.10;;
55794;SDS011;41716;51.910;4.430;2023-05-02T16:06:11;5.22;;;1.38;;
55794;SDS011;41716;51.910;4.430;2023-05-02T16:11:14;4.67;;;1.17;;
55794;SDS011;41716;51.910;4.430;2023-05-02T16:16:17;3.47;;;1.23;;
55794;SDS011;41716;51.910;4.430;2023-05-02T16:21:19;4.27;;;1.23;;
55794;SDS011;41716;51.910;4.430;2023-05-02T16:26:21;3.88;;;1.00;;
55794;SDS011;41716;51.910;4.430;2023-05-02T16:31:24;3.75;;;1.00;;
55794;SDS011;41716;51.910;4.430;2023-05-02T16:36:26;3.50;;;1.07;;
55794;SDS011;41716;51.910;4.430;2023-05-02T16:41:28;2.75;;;0.82;;
55794;SDS011;41716;51.910;4.430;2023-05-02T16:46:31;3.13;;;1.10;;
55794;SDS011;41716;51.910;4.430;2023-05-02T16:51:32;2.70;;;0.87;;
55794;SDS011;41716;51.910;4.430;2023-05-02T16:56:34;4.60;;;0.90;;
55794;SDS011;41716;51.910;4.430;2023-05-02T17:01:37;4.50;;;0.90;;
55794;SDS011;41716;51.910;4.430;2023-05-02T17:06:39;6.33;;;0.90;;
55794;SDS011;41716;51.910;4.430;2023-05-02T17:11:41;4.13;;;1.20;;
55794;SDS011;41716;51.910;4.430;2023-05-02T17:16:44;2.85;;;0.90;;
55794;SDS011;41716;51.910;4.430;2023-05-02T17:21:46;2.47;;;0.90;;
55794;SDS011;41716;51.910;4.430;2023-05-02T17:26:48;2.53;;;0.80;;
55794;SDS011;41716;51.910;4.430;2023-05-02T17:31:51;3.13;;;0.90;;
55794;SDS011;41716;51.910;4.430;2023-05-02T17:36:55;3.20;;;0.93;;
55794;SDS011;41716;51.910;4.430;2023-05-02T17:41:57;4.95;;;0.80;;
55794;SDS011;41716;51.910;4.430;2023-05-02T17:47:00;3.08;;;0.60;;
55794;SDS011;41716;51.910;4.430;2023-05-02T17:52:02;4.33;;;0.87;;
55794;SDS011;41716;51.910;4.430;2023-05-02T17:57:04;1.77;;;0.60;;
55794;SDS011;41716;51.910;4.430;2023-05-02T18:02:07;2.45;;;0.60;;
55794;SDS011;41716;51.910;4.430;2023-05-02T18:07:09;3.03;;;0.85;;
55794;SDS011;41716;51.910;4.430;2023-05-02T18:12:11;2.80;;;0.73;;
55794;SDS011;41716;51.910;4.430;2023-05-02T18:17:14;2.95;;;0.90;;
55794;SDS011;41716;51.910;4.430;2023-05-02T18:22:19;1.88;;;0.70;;
55794;SDS011;41716;51.910;4.430;2023-05-02T18:27:21;1.10;;;0.65;;
55794;SDS011;41716;51.910;4.430;2023-05-02T18:32:24;1.95;;;0.57;;
55794;SDS011;41716;51.910;4.430;2023-05-02T18:37:26;3.53;;;0.90;;
55794;SDS011;41716;51.910;4.430;2023-05-02T18:42:30;3.03;;;0.70;;
55794;SDS011;41716;51.910;4.430;2023-05-02T18:47:33;2.35;;;0.70;;
55794;SDS011;41716;51.910;4.430;2023-05-02T18:52:35;1.75;;;0.50;;
55794;SDS011;41716;51.910;4.430;2023-05-02T18:57:37;3.35;;;0.50;;
55794;SDS011;41716;51.910;4.430;2023-05-02T19:02:40;1.65;;;0.57;;
55794;SDS011;41716;51.910;4.430;2023-05-02T19:07:42;1.63;;;0.50;;
55794;SDS011;41716;51.910;4.430;2023-05-02T19:12:44;2.25;;;0.70;;
55794;SDS011;41716;51.910;4.430;2023-05-02T19:17:47;1.88;;;0.77;;
55794;SDS011;41716;51.910;4.430;2023-05-02T19:22:49;1.10;;;0.50;;
55794;SDS011;41716;51.910;4.430;2023-05-02T19:27:51;2.58;;;0.90;;
55794;SDS011;41716;51.910;4.430;2023-05-02T19:32:54;3.78;;;0.70;;
55794;SDS011;41716;51.910;4.430;2023-05-02T19:37:56;1.52;;;0.70;;
55794;SDS011;41716;51.910;4.430;2023-05-02T19:42:57;5.20;;;0.90;;
55794;SDS011;41716;51.910;4.430;2023-05-02T19:48:01;2.30;;;0.60;;
55794;SDS011;41716;51.910;4.430;2023-05-02T19:53:02;1.77;;;0.90;;
55794;SDS011;41716;51.910;4.430;2023-05-02T19:58:04;1.48;;;0.50;;
55794;SDS011;41716;51.910;4.430;2023-05-02T20:03:07;1.27;;;0.80;;
55794;SDS011;41716;51.910;4.430;2023-05-02T20:08:09;2.73;;;0.87;;
55794;SDS011;41716;51.910;4.430;2023-05-02T20:13:10;2.17;;;0.95;;
55794;SDS011;41716;51.910;4.430;2023-05-02T20:18:14;2.28;;;0.70;;
55794;SDS011;41716;51.910;4.430;2023-05-02T20:23:15;2.43;;;0.83;;
55794;SDS011;41716;51.910;4.430;2023-05-02T20:28:17;1.83;;;0.80;;
55794;SDS011;41716;51.910;4.430;2023-05-02T20:33:20;3.75;;;0.80;;
55794;SDS011;41716;51.910;4.430;2023-05-02T20:38:22;3.87;;;0.80;;
55794;SDS011;41716;51.910;4.430;2023-05-02T20:43:24;3.47;;;0.50;;
55794;SDS011;41716;51.910;4.430;2023-05-02T20:48:29;2.00;;;0.77;;
55794;SDS011;41716;51.910;4.430;2023-05-02T20:53:30;1.48;;;0.50;;
55794;SDS011;41716;51.910;4.430;2023-05-02T20:58:32;2.22;;;0.65;;
55794;SDS011;41716;51.910;4.430;2023-05-02T21:03:35;4.20;;;0.70;;
55794;SDS011;41716;51.910;4.430;2023-05-02T21:08:39;2.78;;;0.70;;
55794;SDS011;41716;51.910;4.430;2023-05-02T21:13:41;1.67;;;0.50;;
55794;SDS011;41716;51.910;4.430;2023-05-02T21:18:45;2.30;;;0.60;;
55794;SDS011;41716;51.910;4.430;2023-05-02T21:23:47;1.83;;;0.55;;
55794;SDS011;41716;51.910;4.430;2023-05-02T21:28:49;1.00;;;0.47;;
55794;SDS011;41716;51.910;4.430;2023-05-02T21:33:52;1.90;;;0.70;;
55794;SDS011;41716;51.910;4.430;2023-05-02T21:38:54;1.45;;;0.50;;
55794;SDS011;41716;51.910;4.430;2023-05-02T21:43:55;1.50;;;0.50;;
55794;SDS011;41716;51.910;4.430;2023-05-02T21:48:58;1.00;;;0.50;;
55794;SDS011;41716;51.910;4.430;2023-05-02T21:54:00;1.92;;;0.70;;
55794;SDS011;41716;51.910;4.430;2023-05-02T21:59:02;1.83;;;0.70;;
55794;SDS011;41716;51.910;4.430;2023-05-02T22:04:05;1.45;;;0.60;;
55794;SDS011;41716;51.910;4.430;2023-05-02T22:09:07;1.83;;;0.50;;
55794;SDS011;41716;51.910;4.430;2023-05-02T22:14:09;2.55;;;0.60;;
55794;SDS011;41716;51.910;4.430;2023-05-02T22:19:12;2.40;;;0.70;;
55794;SDS011;41716;51.910;4.430;2023-05-02T22:24:14;1.53;;;0.60;;
55794;SDS011;41716;51.910;4.430;2023-05-02T22:29:16;3.00;;;0.90;;
55794;SDS011;41716;51.910;4.430;2023-05-02T22:34:20;2.35;;;0.60;;
55794;SDS011;41716;51.910;4.430;2023-05-02T22:39:22;1.05;;;0.50;;
55794;SDS011;41716;51.910;4.430;2023-05-02T22:44:24;1.17;;;0.60;;
55794;SDS011;41716;51.910;4.430;2023-05-02T22:49:27;1.92;;;0.88;;
55794;SDS011;41716;51.910;4.430;2023-05-02T22:59:31;1.25;;;0.63;;
55794;SDS011;41716;51.910;4.430;2023-05-02T23:04:34;1.65;;;0.68;;
55794;SDS011;41716;51.910;4.430;2023-05-02T23:09:36;2.40;;;0.57;;
55794;SDS011;41716;51.910;4.430;2023-05-02T23:14:37;1.67;;;0.60;;
55794;SDS011;41716;51.910;4.430;2023-05-02T23:19:40;3.90;;;0.75;;
55794;SDS011;41716;51.910;4.430;2023-05-02T23:24:44;2.10;;;0.73;;
55794;SDS011;41716;51.910;4.430;2023-05-02T23:29:46;3.75;;;0.75;;
55794;SDS011;41716;51.910;4.430;2023-05-02T23:34:49;1.98;;;0.70;;
55794;SDS011;41716;51.910;4.430;2023-05-02T23:39:51;1.45;;;0.80;;
55794;SDS011;41716;51.910;4.430;2023-05-02T23:44:52;2.05;;;0.80;;
55794;SDS011;41716;51.910;4.430;2023-05-02T23:49:58;4.05;;;0.80;;
55794;SDS011;41716;51.910;4.430;2023-05-02T23:54:59;1.27;;;0.60;;
